Time;durP1;ratioP1;P1;durP2;ratioP2;P2;SDS_P1;SDS_P2;PMS_P1;PMS_P2;Temp;Humidity;BMP_temperature;BMP_pressure;BME280_temperature;BME280_humidity;BME280_pressure;Samples;Min_cycle;Max_cycle;Signal;HPM_P1;HPM_P2
2023/10/03 00:00:49;;;;;;;34.80;21.83;;;;;;;;;;5056664;28;20188;-76
2023/10/03 00:03:16;;;;;;;30.13;20.40;;;;;;;;;;5036555;28;20216;-77
2023/10/03 00:05:45;;;;;;;33.23;21.50;;;;;;;;;;5037789;28;20239;-76
2023/10/03 00:08:11;;;;;;;32.77;21.30;;;;;;;;;;5071533;28;20184;-76
2023/10/03 00:10:40;;;;;;;35.33;22.47;;;;;;;;;;5056357;28;20184;-76
2023/10/03 00:13:11;;;;;;;36.77;22.90;;;;;;;;;;5055840;28;20215;-78
2023/10/03 00:15:44;;;;;;;36.17;22.13;;;;;;;;;;5057378;28;20180;-77
2023/10/03 00:18:14;;;;;;;31.70;20.90;;;;;;;;;;5057012;28;20211;-78
2023/10/03 00:20:40;;;;;;;33.20;22.00;;;;;;;;;;5056959;28;20204;-77
2023/10/03 00:23:06;;;;;;;34.90;21.67;;;;;;;;;;5056626;28;20184;-77
2023/10/03 00:25:32;;;;;;;33.67;21.03;;;;;;;;;;5054908;28;20188;-78
2023/10/03 00:28:02;;;;;;;31.93;20.83;;;;;;;;;;5056245;28;20214;-77
2023/10/03 00:30:29;;;;;;;34.97;21.53;;;;;;;;;;5056323;28;20214;-78
2023/10/03 00:33:02;;;;;;;35.07;21.43;;;;;;;;;;5073179;28;20195;-78
2023/10/03 00:35:28;;;;;;;33.57;21.20;;;;;;;;;;5071970;28;20192;-76
2023/10/03 00:37:54;;;;;;;34.07;21.43;;;;;;;;;;5071908;28;20298;-76
2023/10/03 00:42:52;;;;;;;32.77;21.50;;;;;;;;;;5056457;28;20272;-76
2023/10/03 00:45:21;;;;;;;36.17;22.00;;;;;;;;;;5056918;28;20191;-76
2023/10/03 00:47:51;;;;;;;34.67;20.73;;;;;;;;;;5056263;28;20172;-76
2023/10/03 00:50:20;;;;;;;35.20;21.33;;;;;;;;;;5055895;28;20254;-76
2023/10/03 00:52:53;;;;;;;33.80;21.13;;;;;;;;;;5055294;28;20184;-76
2023/10/03 00:55:19;;;;;;;35.27;20.80;;;;;;;;;;5056473;28;20179;-76
2023/10/03 00:57:45;;;;;;;33.80;20.97;;;;;;;;;;5083436;28;20205;-76
2023/10/03 01:00:16;;;;;;;34.43;21.23;;;;;;;;;;5057708;28;20274;-77
2023/10/03 01:02:52;;;;;;;35.63;21.33;;;;;;;;;;5047194;28;20195;-76
2023/10/03 01:05:18;;;;;;;35.90;20.40;;;;;;;;;;5055010;28;20184;-76
2023/10/03 01:07:45;;;;;;;36.10;21.17;;;;;;;;;;5055147;28;20183;-76
2023/10/03 01:10:17;;;;;;;32.80;21.00;;;;;;;;;;5056309;28;20180;-76
2023/10/03 01:12:44;;;;;;;36.17;21.10;;;;;;;;;;5055878;28;20238;-77
2023/10/03 01:15:19;;;;;;;33.80;20.67;;;;;;;;;;5054841;28;20184;-76
2023/10/03 01:17:49;;;;;;;33.00;20.40;;;;;;;;;;5039097;28;20219;-77
2023/10/03 01:20:28;;;;;;;32.40;20.23;;;;;;;;;;5054742;28;20209;-77
2023/10/03 01:22:54;;;;;;;30.43;20.13;;;;;;;;;;5061051;28;20203;-76
2023/10/03 01:25:21;;;;;;;33.13;20.07;;;;;;;;;;5038063;28;20180;-76
2023/10/03 01:27:47;;;;;;;36.13;21.10;;;;;;;;;;5054615;28;20192;-76
2023/10/03 01:30:13;;;;;;;33.27;20.30;;;;;;;;;;5049286;28;20192;-76
2023/10/03 01:32:42;;;;;;;36.70;20.77;;;;;;;;;;5050210;28;20195;-76
2023/10/03 01:35:10;;;;;;;33.20;20.43;;;;;;;;;;5053594;28;20203;-76
2023/10/03 01:37:36;;;;;;;32.90;19.50;;;;;;;;;;5069767;28;20196;-76
2023/10/03 01:40:02;;;;;;;32.50;20.37;;;;;;;;;;5037730;28;20190;-77
2023/10/03 01:42:29;;;;;;;33.27;20.53;;;;;;;;;;5054772;28;20238;-76
2023/10/03 01:44:55;;;;;;;33.97;19.83;;;;;;;;;;5037937;28;20184;-76
2023/10/03 01:47:21;;;;;;;34.60;20.47;;;;;;;;;;5037900;28;20187;-76
2023/10/03 01:49:50;;;;;;;40.27;20.73;;;;;;;;;;5054507;28;20196;-76
2023/10/03 01:52:17;;;;;;;37.40;21.27;;;;;;;;;;5038287;28;20218;-76
2023/10/03 01:54:43;;;;;;;38.20;21.07;;;;;;;;;;5038103;28;20188;-76
2023/10/03 01:57:09;;;;;;;37.17;20.73;;;;;;;;;;5054565;28;20207;-76
2023/10/03 01:59:35;;;;;;;37.33;20.90;;;;;;;;;;5037802;28;20216;-76
2023/10/03 02:02:03;;;;;;;36.73;20.90;;;;;;;;;;5038358;28;20184;-76
2023/10/03 02:04:29;;;;;;;35.63;20.33;;;;;;;;;;5038037;28;20190;-76
2023/10/03 02:06:55;;;;;;;34.77;20.63;;;;;;;;;;5034412;28;20185;-76
2023/10/03 02:09:21;;;;;;;32.70;19.40;;;;;;;;;;5034476;28;20192;-77
2023/10/03 02:11:47;;;;;;;35.93;20.43;;;;;;;;;;5054791;28;20187;-77
2023/10/03 02:14:14;;;;;;;35.20;21.03;;;;;;;;;;5054406;28;20199;-77
2023/10/03 02:16:43;;;;;;;33.47;20.70;;;;;;;;;;5071257;28;20237;-77
2023/10/03 02:19:09;;;;;;;35.23;21.10;;;;;;;;;;5054238;28;20234;-78
2023/10/03 02:21:35;;;;;;;33.27;20.07;;;;;;;;;;5037793;28;20184;-77
2023/10/03 02:24:01;;;;;;;38.50;21.70;;;;;;;;;;5055362;28;20271;-77
2023/10/03 02:26:32;;;;;;;34.73;20.00;;;;;;;;;;5054119;28;20190;-76
2023/10/03 02:29:00;;;;;;;36.77;20.83;;;;;;;;;;5068473;28;20187;-75
2023/10/03 02:31:26;;;;;;;35.53;20.60;;;;;;;;;;5056573;28;20203;-76
2023/10/03 02:33:53;;;;;;;37.27;20.73;;;;;;;;;;5054149;28;20179;-76
2023/10/03 02:36:19;;;;;;;34.47;19.80;;;;;;;;;;5060302;28;20270;-75
2023/10/03 02:38:45;;;;;;;32.47;19.73;;;;;;;;;;5054366;28;20309;-76
2023/10/03 02:41:13;;;;;;;33.63;19.93;;;;;;;;;;5054547;28;20172;-76
2023/10/03 02:43:43;;;;;;;37.40;19.67;;;;;;;;;;5054655;28;20183;-76
2023/10/03 02:46:12;;;;;;;34.33;19.57;;;;;;;;;;5055527;28;20179;-76
2023/10/03 02:48:38;;;;;;;32.63;19.87;;;;;;;;;;5054687;28;20208;-76
2023/10/03 02:51:06;;;;;;;32.63;19.97;;;;;;;;;;5052958;28;20245;-76
2023/10/03 02:53:32;;;;;;;33.70;19.90;;;;;;;;;;5037085;28;20277;-76
2023/10/03 02:55:58;;;;;;;31.63;19.17;;;;;;;;;;5037290;28;20223;-76
2023/10/03 02:58:24;;;;;;;31.83;20.03;;;;;;;;;;5036975;28;20207;-76
2023/10/03 03:00:55;;;;;;;32.57;19.73;;;;;;;;;;5053899;28;20211;-76
2023/10/03 03:03:30;;;;;;;31.10;18.93;;;;;;;;;;5037266;28;20184;-76
2023/10/03 03:05:57;;;;;;;32.63;19.57;;;;;;;;;;5039100;28;20225;-76
2023/10/03 03:08:28;;;;;;;35.37;18.47;;;;;;;;;;5037261;28;20194;-76
2023/10/03 03:10:56;;;;;;;34.77;19.73;;;;;;;;;;5070439;28;20187;-76
2023/10/03 03:13:26;;;;;;;32.03;19.67;;;;;;;;;;5054041;28;20183;-76
2023/10/03 03:15:59;;;;;;;31.00;19.17;;;;;;;;;;5053829;28;20188;-77
2023/10/03 03:18:25;;;;;;;32.00;19.50;;;;;;;;;;5038165;28;20226;-77
2023/10/03 03:20:57;;;;;;;32.73;19.53;;;;;;;;;;5054380;28;20188;-76
2023/10/03 03:23:27;;;;;;;32.20;19.27;;;;;;;;;;5054445;28;20218;-76
2023/10/03 03:25:57;;;;;;;32.13;18.53;;;;;;;;;;5054687;28;20172;-76
2023/10/03 03:28:23;;;;;;;29.07;18.00;;;;;;;;;;5054248;28;20195;-76
2023/10/03 03:30:58;;;;;;;32.53;18.07;;;;;;;;;;5054448;28;20195;-76
2023/10/03 03:33:27;;;;;;;30.30;17.77;;;;;;;;;;5041028;28;20188;-78
2023/10/03 03:35:54;;;;;;;29.63;17.20;;;;;;;;;;5035335;28;20180;-77
2023/10/03 03:38:20;;;;;;;28.80;17.50;;;;;;;;;;5070564;28;20225;-77
2023/10/03 03:40:47;;;;;;;30.07;17.87;;;;;;;;;;5066246;28;20219;-78
2023/10/03 03:43:16;;;;;;;31.77;18.27;;;;;;;;;;5044574;28;20257;-77
2023/10/03 03:45:43;;;;;;;29.73;17.90;;;;;;;;;;5061695;28;20182;-77
2023/10/03 03:48:09;;;;;;;31.10;18.60;;;;;;;;;;5037335;28;20198;-76
2023/10/03 03:50:36;;;;;;;31.17;19.00;;;;;;;;;;5054032;28;20183;-76
2023/10/03 03:53:06;;;;;;;30.97;18.50;;;;;;;;;;5053326;28;20187;-76
2023/10/03 03:55:34;;;;;;;28.97;17.73;;;;;;;;;;5037502;28;20180;-76
2023/10/03 03:58:01;;;;;;;29.63;17.80;;;;;;;;;;5054185;28;20265;-76
2023/10/03 04:00:31;;;;;;;27.47;16.73;;;;;;;;;;5068116;28;20175;-76
2023/10/03 04:02:59;;;;;;;31.87;18.03;;;;;;;;;;5042425;28;20190;-76
2023/10/03 04:05:25;;;;;;;31.17;16.87;;;;;;;;;;5074497;28;20180;-76
2023/10/03 04:07:53;;;;;;;28.70;16.90;;;;;;;;;;5057538;28;20188;-76
2023/10/03 04:10:19;;;;;;;29.60;16.40;;;;;;;;;;5074430;28;20180;-76
2023/10/03 04:12:45;;;;;;;26.50;15.73;;;;;;;;;;5074185;28;20183;-75
2023/10/03 04:15:12;;;;;;;26.93;16.13;;;;;;;;;;5056525;28;20184;-76
2023/10/03 04:17:39;;;;;;;26.10;16.13;;;;;;;;;;5041119;28;20182;-76
2023/10/03 04:20:14;;;;;;;23.43;15.00;;;;;;;;;;5041117;28;20179;-76
2023/10/03 04:22:41;;;;;;;24.63;15.23;;;;;;;;;;5041754;28;20245;-76
2023/10/03 04:25:12;;;;;;;23.73;14.20;;;;;;;;;;5063848;28;20172;-76
2023/10/03 04:27:39;;;;;;;24.23;14.53;;;;;;;;;;5047846;28;20194;-76
2023/10/03 04:30:05;;;;;;;23.23;14.20;;;;;;;;;;5056542;28;20180;-76
2023/10/03 04:32:32;;;;;;;26.30;14.77;;;;;;;;;;5057481;28;20187;-76
2023/10/03 04:34:58;;;;;;;24.13;14.37;;;;;;;;;;5058907;28;20179;-76
2023/10/03 04:37:24;;;;;;;20.67;13.67;;;;;;;;;;5073962;28;20176;-76
2023/10/03 04:39:50;;;;;;;22.80;14.00;;;;;;;;;;5056884;28;20183;-76
2023/10/03 04:42:16;;;;;;;21.33;13.10;;;;;;;;;;5056842;28;20273;-76
2023/10/03 04:44:42;;;;;;;26.77;13.07;;;;;;;;;;5058029;28;20188;-76
2023/10/03 04:47:11;;;;;;;21.60;12.97;;;;;;;;;;5073217;28;20168;-76
2023/10/03 04:49:38;;;;;;;19.47;12.67;;;;;;;;;;5056869;28;20188;-76
2023/10/03 04:52:07;;;;;;;20.97;11.83;;;;;;;;;;5056670;28;20267;-76
2023/10/03 04:54:34;;;;;;;17.60;10.63;;;;;;;;;;5073161;28;20209;-77
2023/10/03 04:57:00;;;;;;;22.23;9.83;;;;;;;;;;5073142;28;20279;-77
2023/10/03 04:59:26;;;;;;;20.40;9.20;;;;;;;;;;5038918;28;20463;-77
2023/10/03 05:01:53;;;;;;;17.60;7.60;;;;;;;;;;5057358;28;20283;-76
2023/10/03 05:04:19;;;;;;;16.90;7.20;;;;;;;;;;5040282;28;20187;-77
2023/10/03 05:06:47;;;;;;;16.30;6.97;;;;;;;;;;5052586;28;20230;-77
2023/10/03 05:09:13;;;;;;;14.37;7.27;;;;;;;;;;5055726;28;20275;-77
2023/10/03 05:11:40;;;;;;;14.57;6.93;;;;;;;;;;5053894;28;20180;-76
2023/10/03 05:14:06;;;;;;;13.47;6.83;;;;;;;;;;5039402;28;20195;-76
2023/10/03 05:16:34;;;;;;;17.00;7.13;;;;;;;;;;5039200;28;20172;-76
2023/10/03 05:19:00;;;;;;;13.13;6.67;;;;;;;;;;5055010;28;20199;-76
2023/10/03 05:21:26;;;;;;;16.33;7.30;;;;;;;;;;5054984;28;20420;-76
2023/10/03 05:23:52;;;;;;;11.82;6.80;;;;;;;;;;5038417;28;20412;-77
2023/10/03 05:26:19;;;;;;;12.50;6.70;;;;;;;;;;5055151;28;20404;-76
2023/10/03 05:28:46;;;;;;;16.47;6.90;;;;;;;;;;5056313;28;20207;-77
2023/10/03 05:31:12;;;;;;;13.50;6.80;;;;;;;;;;5042815;28;20414;-77
2023/10/03 05:33:38;;;;;;;13.13;6.40;;;;;;;;;;5050462;28;20183;-76
2023/10/03 05:36:04;;;;;;;11.20;6.50;;;;;;;;;;5026835;28;20188;-77
2023/10/03 05:38:30;;;;;;;10.00;6.17;;;;;;;;;;5028735;28;20207;-77
2023/10/03 05:43:25;;;;;;;15.50;6.23;;;;;;;;;;5063849;28;20200;-76
2023/10/03 05:45:51;;;;;;;11.65;6.20;;;;;;;;;;5049625;28;20415;-77
2023/10/03 05:48:21;;;;;;;13.07;6.40;;;;;;;;;;5050074;28;20410;-77
2023/10/03 05:50:48;;;;;;;10.10;5.73;;;;;;;;;;5064664;28;20182;-77
2023/10/03 05:53:14;;;;;;;14.20;5.83;;;;;;;;;;5071629;28;20176;-77
2023/10/03 05:55:40;;;;;;;12.70;6.30;;;;;;;;;;5069633;28;20407;-77
2023/10/03 05:58:07;;;;;;;12.82;6.25;;;;;;;;;;5070823;28;20430;-77
2023/10/03 06:00:33;;;;;;;11.80;6.13;;;;;;;;;;5055938;28;20175;-77
2023/10/03 06:02:59;;;;;;;12.13;6.22;;;;;;;;;;5053955;28;20473;-76
2023/10/03 06:05:25;;;;;;;10.87;5.53;;;;;;;;;;5068067;28;20183;-76
2023/10/03 06:07:51;;;;;;;11.67;5.70;;;;;;;;;;5052580;28;20183;-76
2023/10/03 06:10:18;;;;;;;12.83;5.93;;;;;;;;;;5062194;28;20183;-76
2023/10/03 06:12:44;;;;;;;12.07;5.65;;;;;;;;;;5063067;28;20420;-76
2023/10/03 06:15:12;;;;;;;12.30;6.25;;;;;;;;;;5066703;28;20495;-76
2023/10/03 06:17:40;;;;;;;10.55;6.60;;;;;;;;;;5062715;28;20425;-78
2023/10/03 06:20:06;;;;;;;9.80;6.03;;;;;;;;;;5066650;28;20180;-79
2023/10/03 06:22:35;;;;;;;11.43;6.37;;;;;;;;;;5070776;28;20258;-79
2023/10/03 06:25:01;;;;;;;11.67;6.03;;;;;;;;;;5048533;28;20180;-79
2023/10/03 06:27:27;;;;;;;10.13;5.93;;;;;;;;;;5045943;28;20191;-79
2023/10/03 06:29:53;;;;;;;12.40;5.93;;;;;;;;;;5058526;28;20190;-79
2023/10/03 06:32:19;;;;;;;12.27;6.30;;;;;;;;;;5074479;28;20257;-80
2023/10/03 06:34:45;;;;;;;11.93;6.50;;;;;;;;;;5057657;28;20190;-76
2023/10/03 06:37:11;;;;;;;12.83;6.47;;;;;;;;;;5057138;28;20183;-76
2023/10/03 06:39:37;;;;;;;10.00;6.40;;;;;;;;;;5073796;28;20294;-76
2023/10/03 06:42:03;;;;;;;13.70;6.43;;;;;;;;;;5057039;28;20288;-76
2023/10/03 06:44:29;;;;;;;12.67;6.17;;;;;;;;;;5072124;28;20183;-76
2023/10/03 06:46:55;;;;;;;13.15;6.80;;;;;;;;;;5074230;28;20441;-76
2023/10/03 06:49:23;;;;;;;11.17;6.00;;;;;;;;;;5077670;28;20241;-76
2023/10/03 06:51:56;;;;;;;11.13;6.03;;;;;;;;;;5059507;28;20179;-79
2023/10/03 06:54:23;;;;;;;11.90;6.57;;;;;;;;;;5069990;28;20176;-79
2023/10/03 06:56:50;;;;;;;11.07;6.20;;;;;;;;;;5091320;28;20184;-79
2023/10/03 06:59:16;;;;;;;10.82;6.47;;;;;;;;;;5078670;28;20468;-79
2023/10/03 07:01:42;;;;;;;13.57;6.50;;;;;;;;;;5073915;28;20196;-79
2023/10/03 07:04:08;;;;;;;10.60;6.30;;;;;;;;;;5057093;28;20186;-79
2023/10/03 07:06:35;;;;;;;12.30;5.97;;;;;;;;;;5093704;28;20166;-80
2023/10/03 07:09:05;;;;;;;9.13;5.67;;;;;;;;;;5059214;28;20195;-79
2023/10/03 07:11:31;;;;;;;11.37;6.40;;;;;;;;;;5057741;28;20180;-78
2023/10/03 07:13:57;;;;;;;9.47;5.83;;;;;;;;;;5085383;28;20238;-78
2023/10/03 07:16:24;;;;;;;9.07;6.07;;;;;;;;;;5093605;28;20179;-78
2023/10/03 07:18:50;;;;;;;11.13;6.00;;;;;;;;;;5067715;28;20219;-78
2023/10/03 07:21:16;;;;;;;10.03;5.97;;;;;;;;;;5053505;28;20191;-78
2023/10/03 07:23:43;;;;;;;13.13;6.60;;;;;;;;;;5054607;28;20237;-78
2023/10/03 07:26:09;;;;;;;13.77;6.50;;;;;;;;;;5053554;28;20222;-78
2023/10/03 07:28:38;;;;;;;12.32;6.97;;;;;;;;;;5072166;28;20461;-78
2023/10/03 07:31:07;;;;;;;13.27;6.83;;;;;;;;;;5054277;28;20176;-77
2023/10/03 07:33:33;;;;;;;11.65;7.00;;;;;;;;;;5066591;28;20407;-77
2023/10/03 07:36:04;;;;;;;11.17;6.13;;;;;;;;;;5075632;28;20270;-77
2023/10/03 07:38:30;;;;;;;12.87;6.17;;;;;;;;;;5077269;28;20211;-77
2023/10/03 07:40:56;;;;;;;13.57;7.28;;;;;;;;;;5049101;28;20450;-79
2023/10/03 07:43:22;;;;;;;14.70;6.97;;;;;;;;;;5072499;28;20231;-79
2023/10/03 07:45:50;;;;;;;11.00;6.73;;;;;;;;;;5060282;28;20221;-79
2023/10/03 07:48:16;;;;;;;8.37;6.50;;;;;;;;;;5060768;28;20188;-79
2023/10/03 07:50:43;;;;;;;12.35;6.97;;;;;;;;;;5060254;28;20422;-79
2023/10/03 07:53:11;;;;;;;13.50;7.87;;;;;;;;;;5059977;28;20434;-76
2023/10/03 07:55:39;;;;;;;9.87;7.13;;;;;;;;;;5059652;28;20192;-76
2023/10/03 07:58:05;;;;;;;12.23;7.23;;;;;;;;;;5060715;28;20294;-79
2023/10/03 08:00:31;;;;;;;11.32;7.30;;;;;;;;;;5077042;28;20447;-79
2023/10/03 08:02:58;;;;;;;10.85;6.32;;;;;;;;;;5078154;28;20417;-79
2023/10/03 08:05:27;;;;;;;11.13;6.68;;;;;;;;;;5070752;28;20420;-80
2023/10/03 08:07:57;;;;;;;12.38;6.70;;;;;;;;;;5091142;28;20431;-78
2023/10/03 08:10:28;;;;;;;12.57;5.43;;;;;;;;;;5060159;28;20217;-79
2023/10/03 08:12:54;;;;;;;10.13;6.03;;;;;;;;;;5084829;28;20471;-78
2023/10/03 08:15:21;;;;;;;11.90;5.77;;;;;;;;;;5077099;28;20480;-75
2023/10/03 08:17:48;;;;;;;9.37;4.83;;;;;;;;;;5059968;28;20270;-76
2023/10/03 08:20:15;;;;;;;11.53;5.00;;;;;;;;;;5084834;28;20299;-76
2023/10/03 08:22:42;;;;;;;9.33;4.73;;;;;;;;;;5096342;28;20217;-76
2023/10/03 08:25:09;;;;;;;7.83;4.30;;;;;;;;;;5058021;28;20237;-76
2023/10/03 08:27:35;;;;;;;6.95;4.10;;;;;;;;;;5067154;28;20407;-76
2023/10/03 08:30:03;;;;;;;8.45;3.90;;;;;;;;;;5070611;28;20427;-76
2023/10/03 08:32:29;;;;;;;6.13;2.90;;;;;;;;;;5056823;28;20172;-77
2023/10/03 08:34:55;;;;;;;6.13;3.10;;;;;;;;;;5059831;28;20222;-77
2023/10/03 08:37:21;;;;;;;7.60;2.83;;;;;;;;;;5056263;28;20191;-78
2023/10/03 08:39:51;;;;;;;6.60;2.70;;;;;;;;;;5055963;28;20212;-78
2023/10/03 08:42:20;;;;;;;7.73;3.20;;;;;;;;;;5059838;28;20227;-79
2023/10/03 08:44:53;;;;;;;4.77;2.53;;;;;;;;;;5076430;28;20172;-76
2023/10/03 08:47:28;;;;;;;7.10;2.80;;;;;;;;;;5075060;28;20183;-76
2023/10/03 08:49:57;;;;;;;7.03;2.97;;;;;;;;;;5055898;28;20202;-79
2023/10/03 08:52:39;;;;;;;6.77;2.87;;;;;;;;;;5055523;28;20180;-79
2023/10/03 08:55:09;;;;;;;7.43;2.70;;;;;;;;;;5043549;28;20195;-79
2023/10/03 08:57:40;;;;;;;8.17;3.47;;;;;;;;;;5079635;28;20182;-79
2023/10/03 09:00:09;;;;;;;11.43;3.40;;;;;;;;;;5068011;28;20204;-79
2023/10/03 09:02:49;;;;;;;5.57;2.93;;;;;;;;;;5076509;28;20254;-79
2023/10/03 09:05:19;;;;;;;4.40;2.73;;;;;;;;;;5074204;28;20186;-76
2023/10/03 09:07:49;;;;;;;4.23;2.60;;;;;;;;;;5068749;28;20180;-76
2023/10/03 09:10:22;;;;;;;5.67;2.63;;;;;;;;;;5067171;28;20278;-76
2023/10/03 09:13:04;;;;;;;8.23;2.73;;;;;;;;;;5039960;28;20188;-76
2023/10/03 09:15:37;;;;;;;4.80;2.13;;;;;;;;;;5080952;28;20181;-76
2023/10/03 09:18:09;;;;;;;5.73;2.40;;;;;;;;;;5096535;28;20217;-76
2023/10/03 09:20:36;;;;;;;4.63;2.00;;;;;;;;;;5065564;28;20262;-76
2023/10/03 09:23:05;;;;;;;4.47;1.80;;;;;;;;;;5075459;28;20183;-76
2023/10/03 09:25:32;;;;;;;3.83;1.83;;;;;;;;;;5075666;28;20221;-76
2023/10/03 09:28:05;;;;;;;5.13;1.70;;;;;;;;;;5080115;28;20189;-76
2023/10/03 09:30:37;;;;;;;2.63;1.37;;;;;;;;;;5085745;28;20195;-76
2023/10/03 09:33:08;;;;;;;3.37;1.50;;;;;;;;;;5064117;28;20195;-76
2023/10/03 09:35:34;;;;;;;4.33;1.40;;;;;;;;;;5075489;28;20182;-76
2023/10/03 09:38:08;;;;;;;4.83;1.80;;;;;;;;;;5056231;28;20211;-78
2023/10/03 09:40:49;;;;;;;3.87;1.57;;;;;;;;;;5075270;28;20199;-79
2023/10/03 09:43:19;;;;;;;5.00;1.60;;;;;;;;;;5073755;28;20215;-78
2023/10/03 09:45:47;;;;;;;3.27;1.60;;;;;;;;;;5055959;28;20168;-78
2023/10/03 09:48:14;;;;;;;4.50;1.60;;;;;;;;;;5059601;28;20183;-78
2023/10/03 09:50:51;;;;;;;4.63;1.60;;;;;;;;;;5076150;28;20265;-78
2023/10/03 09:53:18;;;;;;;5.23;1.50;;;;;;;;;;5075225;28;20274;-77
2023/10/03 09:55:47;;;;;;;5.17;1.77;;;;;;;;;;5058417;28;20191;-81
2023/10/03 09:58:24;;;;;;;2.77;1.40;;;;;;;;;;5073445;28;20230;-79
2023/10/03 10:00:53;;;;;;;6.70;1.87;;;;;;;;;;5059024;28;20207;-80
2023/10/03 10:03:28;;;;;;;4.37;1.80;;;;;;;;;;5075232;28;20182;-80
2023/10/03 10:06:17;;;;;;;5.07;1.60;;;;;;;;;;5074508;28;20178;-79
2023/10/03 10:08:57;;;;;;;3.23;1.60;;;;;;;;;;5080351;28;20277;-80
2023/10/03 10:11:26;;;;;;;3.13;1.40;;;;;;;;;;5058557;28;20234;-78
2023/10/03 10:14:09;;;;;;;3.20;1.30;;;;;;;;;;5053925;28;20250;-78
2023/10/03 10:16:35;;;;;;;3.47;1.23;;;;;;;;;;5075403;28;20224;-76
2023/10/03 10:19:04;;;;;;;1.70;1.10;;;;;;;;;;5070073;28;20208;-76
2023/10/03 10:21:31;;;;;;;3.63;1.40;;;;;;;;;;5053956;28;20210;-76
2023/10/03 10:24:15;;;;;;;4.60;1.40;;;;;;;;;;5071249;28;20179;-76
2023/10/03 10:26:42;;;;;;;6.30;1.50;;;;;;;;;;5073094;28;20217;-76
2023/10/03 10:29:09;;;;;;;3.87;1.60;;;;;;;;;;5075569;28;20198;-76
2023/10/03 10:31:44;;;;;;;5.10;1.47;;;;;;;;;;5073760;28;20175;-76
2023/10/03 10:34:19;;;;;;;4.20;1.27;;;;;;;;;;5074531;28;20213;-76
2023/10/03 10:36:55;;;;;;;2.50;1.10;;;;;;;;;;5070153;28;20194;-77
2023/10/03 10:39:23;;;;;;;2.77;1.30;;;;;;;;;;5077703;28;20257;-77
2023/10/03 10:42:09;;;;;;;2.17;1.03;;;;;;;;;;5073459;28;20278;-77
2023/10/03 10:44:35;;;;;;;3.80;1.30;;;;;;;;;;5072451;28;20258;-76
2023/10/03 10:47:06;;;;;;;3.57;1.20;;;;;;;;;;5052165;28;20191;-76
2023/10/03 10:49:36;;;;;;;3.67;1.10;;;;;;;;;;5074367;28;20217;-76
2023/10/03 10:52:06;;;;;;;3.07;1.30;;;;;;;;;;5073161;28;20192;-76
2023/10/03 10:54:33;;;;;;;4.23;1.10;;;;;;;;;;5061832;28;20184;-76
2023/10/03 10:57:03;;;;;;;3.47;1.23;;;;;;;;;;5060553;28;20226;-76
2023/10/03 10:59:31;;;;;;;5.90;1.50;;;;;;;;;;5072462;28;20215;-76
2023/10/03 11:01:57;;;;;;;4.30;1.37;;;;;;;;;;5074329;28;20220;-76
2023/10/03 11:04:29;;;;;;;2.30;1.20;;;;;;;;;;5072289;28;20186;-77
2023/10/03 11:06:55;;;;;;;3.07;1.10;;;;;;;;;;5073769;28;20194;-76
2023/10/03 11:09:22;;;;;;;3.00;1.10;;;;;;;;;;5073734;28;20219;-76
2023/10/03 11:11:51;;;;;;;4.27;1.30;;;;;;;;;;5072415;28;20194;-76
2023/10/03 11:14:29;;;;;;;4.40;1.30;;;;;;;;;;5073764;28;20182;-76
2023/10/03 11:16:56;;;;;;;4.13;1.20;;;;;;;;;;5070817;28;20209;-76
2023/10/03 11:19:22;;;;;;;2.20;1.20;;;;;;;;;;5068525;28;20215;-76
2023/10/03 11:21:49;;;;;;;4.90;1.40;;;;;;;;;;5073307;28;20183;-76
2023/10/03 11:24:21;;;;;;;3.50;1.30;;;;;;;;;;5074195;28;20183;-79
2023/10/03 11:26:48;;;;;;;4.27;1.30;;;;;;;;;;5056182;28;20183;-79
2023/10/03 11:29:15;;;;;;;4.10;1.27;;;;;;;;;;5073120;28;20183;-79
2023/10/03 11:31:45;;;;;;;3.43;1.33;;;;;;;;;;5072108;28;20201;-79
2023/10/03 11:34:11;;;;;;;2.50;1.30;;;;;;;;;;5073842;28;20214;-79
2023/10/03 11:36:41;;;;;;;4.57;1.40;;;;;;;;;;5071646;28;20216;-78
2023/10/03 11:39:08;;;;;;;5.03;1.53;;;;;;;;;;5078814;28;20284;-79
2023/10/03 11:41:36;;;;;;;5.90;1.63;;;;;;;;;;5072151;23;20227;-76
2023/10/03 11:44:04;;;;;;;2.17;1.53;;;;;;;;;;5052606;28;20294;-76
2023/10/03 11:46:39;;;;;;;3.23;1.60;;;;;;;;;;5036215;28;20207;-76
2023/10/03 11:49:08;;;;;;;4.07;1.60;;;;;;;;;;5052521;28;20172;-76
2023/10/03 11:51:38;;;;;;;4.80;1.90;;;;;;;;;;5052602;28;20230;-76
2023/10/03 11:54:08;;;;;;;4.43;2.00;;;;;;;;;;5050274;28;20176;-76
2023/10/03 11:56:39;;;;;;;3.10;1.90;;;;;;;;;;5052400;28;20241;-76
2023/10/03 11:59:05;;;;;;;4.90;2.10;;;;;;;;;;5050999;28;20228;-76
2023/10/03 12:01:31;;;;;;;2.40;1.80;;;;;;;;;;5035984;28;20179;-76
2023/10/03 12:03:57;;;;;;;3.33;2.00;;;;;;;;;;5051906;28;20180;-76
2023/10/03 12:06:24;;;;;;;5.00;2.00;;;;;;;;;;5035763;28;20188;-76
2023/10/03 12:08:50;;;;;;;4.40;2.10;;;;;;;;;;5053712;28;20179;-76
2023/10/03 12:11:16;;;;;;;5.23;1.90;;;;;;;;;;5051685;28;20188;-76
2023/10/03 12:13:42;;;;;;;5.80;2.00;;;;;;;;;;5052397;28;20259;-76
2023/10/03 12:16:08;;;;;;;3.77;1.97;;;;;;;;;;5072607;28;20291;-76
2023/10/03 12:18:36;;;;;;;6.57;2.40;;;;;;;;;;5055901;28;20279;-76
2023/10/03 12:21:02;;;;;;;5.00;2.33;;;;;;;;;;5071124;28;20183;-76
2023/10/03 12:23:28;;;;;;;5.53;2.20;;;;;;;;;;5036117;28;20227;-76
2023/10/03 12:25:56;;;;;;;4.50;2.03;;;;;;;;;;5056445;28;20180;-76
2023/10/03 12:28:22;;;;;;;4.97;2.23;;;;;;;;;;5055340;28;20184;-76
2023/10/03 12:30:50;;;;;;;6.83;2.50;;;;;;;;;;5037026;28;20191;-77
2023/10/03 12:33:18;;;;;;;6.83;2.20;;;;;;;;;;5035981;28;20197;-76
2023/10/03 12:35:45;;;;;;;5.63;2.70;;;;;;;;;;5036325;28;20181;-76
2023/10/03 12:38:11;;;;;;;5.10;2.50;;;;;;;;;;5043964;28;20242;-76
2023/10/03 12:40:37;;;;;;;6.67;2.63;;;;;;;;;;5055755;28;20183;-75
2023/10/03 12:43:03;;;;;;;6.83;2.80;;;;;;;;;;5038227;28;20235;-79
2023/10/03 12:45:30;;;;;;;7.13;3.00;;;;;;;;;;5035607;28;20189;-79
2023/10/03 12:47:56;;;;;;;7.90;3.10;;;;;;;;;;5035685;28;20203;-78
2023/10/03 12:50:25;;;;;;;8.40;2.93;;;;;;;;;;5020015;28;20252;-79
2023/10/03 12:52:52;;;;;;;9.20;3.50;;;;;;;;;;5047489;28;20191;-79
2023/10/03 12:55:18;;;;;;;7.60;2.97;;;;;;;;;;5055205;28;20192;-78
2023/10/03 12:57:49;;;;;;;9.03;2.70;;;;;;;;;;5055805;28;20255;-79
2023/10/03 13:00:23;;;;;;;6.60;2.90;;;;;;;;;;5055338;28;20172;-78
2023/10/03 13:02:49;;;;;;;7.13;3.00;;;;;;;;;;5053969;28;20297;-76
2023/10/03 13:05:16;;;;;;;8.23;2.87;;;;;;;;;;5055113;28;20178;-76
2023/10/03 13:07:47;;;;;;;7.57;3.07;;;;;;;;;;5055375;28;20188;-77
2023/10/03 13:10:14;;;;;;;8.47;3.37;;;;;;;;;;5054882;28;20222;-76
2023/10/03 13:12:41;;;;;;;9.27;2.93;;;;;;;;;;5055170;28;20175;-76
2023/10/03 13:15:10;;;;;;;7.17;3.23;;;;;;;;;;5054842;28;20176;-79
2023/10/03 13:17:37;;;;;;;10.07;3.33;;;;;;;;;;5037948;28;20180;-79
2023/10/03 13:20:03;;;;;;;9.63;3.07;;;;;;;;;;5038780;28;20226;-79
2023/10/03 13:22:31;;;;;;;8.43;3.10;;;;;;;;;;5038519;28;20179;-78
2023/10/03 13:24:57;;;;;;;6.50;2.40;;;;;;;;;;5038581;28;20183;-76
2023/10/03 13:27:24;;;;;;;6.97;2.63;;;;;;;;;;5054661;28;20176;-76
2023/10/03 13:29:51;;;;;;;7.63;3.17;;;;;;;;;;5055211;28;20176;-76
2023/10/03 13:32:18;;;;;;;9.27;2.93;;;;;;;;;;5055057;28;20259;-76
2023/10/03 13:34:45;;;;;;;7.90;3.20;;;;;;;;;;5054630;28;20191;-76
2023/10/03 13:37:12;;;;;;;7.70;2.80;;;;;;;;;;5037757;28;20198;-76
2023/10/03 13:39:39;;;;;;;6.70;2.80;;;;;;;;;;5035267;28;20220;-79
2023/10/03 13:42:05;;;;;;;10.73;3.10;;;;;;;;;;5051811;28;20278;-80
2023/10/03 13:44:31;;;;;;;7.03;2.90;;;;;;;;;;5035373;28;20184;-79
2023/10/03 13:46:57;;;;;;;6.67;3.00;;;;;;;;;;5054381;28;20188;-79
2023/10/03 13:49:24;;;;;;;9.30;3.20;;;;;;;;;;5054746;28;20184;-77
2023/10/03 13:51:51;;;;;;;8.37;3.10;;;;;;;;;;5036101;28;20188;-76
2023/10/03 13:54:17;;;;;;;8.17;3.50;;;;;;;;;;5034526;28;20212;-77
2023/10/03 13:56:43;;;;;;;11.27;3.60;;;;;;;;;;5051057;28;20192;-77
2023/10/03 13:59:10;;;;;;;9.43;3.23;;;;;;;;;;5054701;28;20211;-77
2023/10/03 14:01:36;;;;;;;6.97;2.90;;;;;;;;;;5053261;28;20183;-77
2023/10/03 14:04:05;;;;;;;7.77;2.60;;;;;;;;;;5058857;28;20201;-77
2023/10/03 14:06:33;;;;;;;9.73;3.17;;;;;;;;;;5074226;28;20176;-77
2023/10/03 14:08:59;;;;;;;5.60;3.07;;;;;;;;;;5054697;28;20180;-77
2023/10/03 14:11:25;;;;;;;10.27;3.43;;;;;;;;;;5054194;28;20218;-77
2023/10/03 14:13:52;;;;;;;6.87;3.10;;;;;;;;;;5055842;28;20180;-77
2023/10/03 14:16:21;;;;;;;6.77;3.13;;;;;;;;;;5053365;28;20180;-76
2023/10/03 14:18:51;;;;;;;7.90;3.03;;;;;;;;;;5025715;28;20227;-76
2023/10/03 14:21:17;;;;;;;7.00;2.83;;;;;;;;;;5053814;28;20242;-76
2023/10/03 14:23:43;;;;;;;8.83;3.10;;;;;;;;;;5055223;28;20227;-76
2023/10/03 14:26:09;;;;;;;5.63;2.87;;;;;;;;;;5053972;28;20183;-76
2023/10/03 14:28:35;;;;;;;9.17;3.00;;;;;;;;;;5032257;28;20188;-76
2023/10/03 14:31:02;;;;;;;5.53;2.70;;;;;;;;;;5036002;28;20184;-76
2023/10/03 14:33:28;;;;;;;8.03;2.83;;;;;;;;;;5034195;28;20180;-76
2023/10/03 14:35:58;;;;;;;6.67;2.63;;;;;;;;;;5037621;28;20188;-76
2023/10/03 14:38:24;;;;;;;8.73;2.57;;;;;;;;;;5054705;28;20206;-76
2023/10/03 14:40:51;;;;;;;7.93;2.90;;;;;;;;;;5053798;28;20180;-77